Terminal Aerodrome Forecast
Issued by NWS Twin Cities, MN

Home | Current Version | Previous Version | Graphics & Text | Print | Product List | Glossary On
Versions: 1 2 3 4 5 6 7 8 9 10 11 12 13 14 15 16 17 18
000
FTUS43 KMPX 231735
TAFSTC
TAF
KSTC 231735Z 2318/2418 09010KT 5SM -TSRA SCT020 OVC050CB
      TEMPO 2318/2320 3SM TSRA SCT015 OVC035CB
     FM232100 15012KT P6SM BKN050
     FM232300 15010KT P6SM VCTS SCT020 BKN040CB
      TEMPO 2323/2401 4SM -TSRA BKN020CB
     FM240100 19009KT P6SM SCT050 BKN100
     FM240700 26007KT P6SM SKC=

USA.gov is the U.S. government's official web portal to all federal, state and local government web resources and services.